Terminal Aerodrome Forecast
Issued by NWS

Current Version | Previous Version | Text Only | Print | Product List | Glossary On
Versions: 1 2 3 4 5 6 7 8 9 10 11 12 13 14 15 16 17 18 19 20
000
FTUS44 KLZK 210306 AAA
TAFHOT
TAF AMD
KHOT 210306Z 2103/2124 26006KT P6SM -RA SCT050 OVC100
     FM210600 32005KT 4SM -RA BR BKN015 OVC030
      TEMPO 2106/2110 2SM RA BR OVC008
     FM211200 VRB03KT 3SM -RA BR OVC012
     FM211600 32005KT P6SM VCSH OVC025=

USA.gov is the U.S. government's official web portal to all federal, state and local government web resources and services.